De Pere, Wisconsin
Current Conditions -  °F | °C
As of 9:53 PM on Saturday 25 Oct 2014 (Local Time) from KGRB Reporting Station
Clear Clear  
Wind Chill: 50°   Ceiling: Unl
Heat Index: 50°   Visibility: 10mi
Dew Point: 32°   Wind: 9mph
Humidity: 50%   Direction: 280°W
Pressure: 29.91"   Gusts: NA
Location:  44.45°N, 88.08°W
Report Text: KGRB 260253Z 28008KT 10SM CLR 10/00 A2991 RMK AO2 SLP132 T01000000 51017
Loading
Personal Weather Stations






























Interactive Weather Map
Tropical Storm Tracking
New forecast layout! Learn more

10-Day Weather Forecast

Advertisements
Track Severe Weather on mobile